createdAt,value
2022-08-20T00:00:57.765Z,100358.66
2022-08-20T00:04:03.803Z,100355.09
2022-08-20T00:07:08.509Z,100359.19
2022-08-20T00:10:10.393Z,100351.03
2022-08-20T00:13:15.483Z,100354.09
2022-08-20T00:16:22.962Z,100353.22
2022-08-20T00:19:24.642Z,100354.94
2022-08-20T00:22:28.793Z,100354.72
2022-08-20T00:25:30.739Z,100353.53
2022-08-20T00:28:32.659Z,100362.38
2022-08-20T00:31:35.565Z,100354.75
2022-08-20T00:34:39.792Z,100358.31
2022-08-20T00:37:42.132Z,100354.41
2022-08-20T00:40:53.964Z,100359.31
2022-08-20T00:44:04.586Z,100360.84
2022-08-20T00:47:06.417Z,100355.72
2022-08-20T00:50:08.764Z,100357.44
2022-08-20T00:53:10.459Z,100363.88
2022-08-20T00:56:12.946Z,100358.28
2022-08-20T00:59:18.907Z,100357.44
2022-08-20T01:02:23.342Z,100361.84
2022-08-20T01:05:27.869Z,100370.00
2022-08-20T01:08:31.852Z,100373.78
2022-08-20T01:11:37.051Z,100381.75
2022-08-20T01:14:47.613Z,100386.84
2022-08-20T01:17:53.318Z,100383.09
2022-08-20T01:20:59.607Z,100379.19
2022-08-20T01:24:06.817Z,100379.19
2022-08-20T01:27:09.220Z,100377.16
2022-08-20T01:30:11.704Z,100382.75
2022-08-20T01:33:13.576Z,100391.09
2022-08-20T01:36:18.810Z,100387.19
2022-08-20T01:39:26.603Z,100393.47
2022-08-20T01:42:37.773Z,100390.75
2022-08-20T01:45:59.261Z,100392.94
2022-08-20T01:49:11.853Z,100387.19
2022-08-20T01:52:24.598Z,100390.06
2022-08-20T01:55:29.524Z,100389.22
2022-08-20T01:58:33.611Z,100377.50
2022-08-20T02:01:46.244Z,100376.47
2022-08-20T02:04:48.616Z,100376.63
2022-08-20T02:07:50.515Z,100387.34
2022-08-20T02:10:52.528Z,100368.31
2022-08-20T02:13:54.684Z,100380.22
2022-08-20T02:16:58.582Z,100372.22
2022-08-20T02:20:13.362Z,100373.56
2022-08-20T02:23:16.267Z,100372.06
2022-08-20T02:26:19.235Z,100373.78
2022-08-20T02:29:20.929Z,100374.78
2022-08-20T02:32:24.162Z,100380.22
2022-08-20T02:35:36.041Z,100376.66
2022-08-20T02:38:38.953Z,100383.97
2022-08-20T02:41:41.498Z,100382.94
2022-08-20T02:44:43.566Z,100385.00
2022-08-20T02:47:46.471Z,100381.59
2022-08-20T02:50:55.308Z,100384.47
2022-08-20T02:53:57.084Z,100388.56
2022-08-20T02:56:58.700Z,100385.84
2022-08-20T03:00:02.107Z,100396.72
2022-08-20T03:03:04.080Z,100391.28
2022-08-20T03:06:08.016Z,100390.25
2022-08-20T03:09:09.681Z,100390.78
2022-08-20T03:12:11.383Z,100395.22
2022-08-20T03:15:17.582Z,100394.53
2022-08-20T03:18:20.667Z,100404.22
2022-08-20T03:21:22.289Z,100398.94
2022-08-20T03:24:23.901Z,100400.97
2022-08-20T03:27:25.657Z,100399.97
2022-08-20T03:30:32.598Z,100407.28
2022-08-20T03:33:34.911Z,100409.81
2022-08-20T03:36:36.572Z,100405.75
2022-08-20T03:39:39.199Z,100406.59
2022-08-20T03:42:41.254Z,100404.91
2022-08-20T03:45:44.762Z,100406.41
2022-08-20T03:48:46.405Z,100413.91
2022-08-20T03:51:57.686Z,100414.59
2022-08-20T03:55:00.012Z,100423.41
2022-08-20T03:58:06.272Z,100416.13
2022-08-20T04:01:32.053Z,100427.16
2022-08-20T04:04:29.556Z,100429.19
2022-08-20T04:07:31.174Z,100431.06
2022-08-20T04:10:32.827Z,100419.50
2022-08-20T04:13:34.829Z,100419.50
2022-08-20T04:16:41.827Z,100427.84
2022-08-20T04:19:44.447Z,100428.00
2022-08-20T04:22:50.861Z,100430.22
2022-08-20T04:26:01.496Z,100432.59
2022-08-20T04:29:03.771Z,100437.84
2022-08-20T04:32:06.226Z,100438.03
2022-08-20T04:35:11.759Z,100460.47
2022-08-20T04:38:17.347Z,100444.47
2022-08-20T04:41:23.658Z,100438.53
2022-08-20T04:44:25.694Z,100450.59
2022-08-20T04:47:34.614Z,100448.72
2022-08-20T04:50:39.229Z,100441.41
2022-08-20T04:53:41.913Z,100450.44
2022-08-20T04:56:43.628Z,100453.16
2022-08-20T04:59:45.307Z,100459.44
2022-08-20T05:02:46.888Z,100457.22
2022-08-20T05:05:49.069Z,100460.63
2022-08-20T05:08:50.744Z,100463.84
2022-08-20T05:11:52.404Z,100448.41
2022-08-20T05:14:54.279Z,100452.81
2022-08-20T05:18:02.505Z,100449.06
2022-08-20T05:21:05.990Z,100454.50
2022-08-20T05:24:08.263Z,100458.75
2022-08-20T05:27:10.215Z,100463.00
2022-08-20T05:30:33.492Z,100467.78
2022-08-20T05:33:37.954Z,100475.59
2022-08-20T05:36:41.840Z,100470.66
2022-08-20T05:39:44.406Z,100469.31
2022-08-20T05:42:46.010Z,100474.38
2022-08-20T05:45:56.538Z,100471.03
2022-08-20T05:49:00.032Z,100475.28
2022-08-20T05:52:01.986Z,100478.16
2022-08-20T05:55:05.923Z,100483.09
2022-08-20T05:58:14.791Z,100471.16
2022-08-20T06:01:16.564Z,100473.88
2022-08-20T06:04:32.086Z,100473.22
2022-08-20T06:07:33.765Z,100471.81
2022-08-20T06:10:36.899Z,100467.59
2022-08-20T06:13:39.138Z,100471.63
2022-08-20T06:16:57.364Z,100471.28
2022-08-20T06:20:02.962Z,100470.56
2022-08-20T06:23:05.871Z,100471.75
2022-08-20T06:26:09.259Z,100472.91
2022-08-20T06:29:11.360Z,100469.50
2022-08-20T06:32:13.263Z,100469.31
2022-08-20T06:35:19.444Z,100471.13
2022-08-20T06:38:21.696Z,100468.94
2022-08-20T06:41:23.373Z,100468.19
2022-08-20T06:44:38.069Z,100467.31
2022-08-20T06:47:44.894Z,100465.88
2022-08-20T06:50:47.523Z,100470.28
2022-08-20T06:53:49.734Z,100475.50
2022-08-20T06:56:54.138Z,100479.00
2022-08-20T06:59:55.814Z,100476.53
2022-08-20T07:03:00.485Z,100482.59
2022-08-20T07:06:02.172Z,100484.34
2022-08-20T07:09:03.931Z,100482.72
2022-08-20T07:12:06.404Z,100484.81
2022-08-20T07:15:10.989Z,100484.56
2022-08-20T07:18:13.997Z,100485.69
2022-08-20T07:21:17.456Z,100482.31
2022-08-20T07:24:19.271Z,100488.25
2022-08-20T07:27:23.048Z,100482.72
2022-08-20T07:30:56.895Z,100487.06
2022-08-20T07:33:59.877Z,100494.03
2022-08-20T07:37:04.061Z,100490.47
2022-08-20T07:40:07.288Z,100495.44
2022-08-20T07:43:10.700Z,100501.56
2022-08-20T07:46:17.994Z,100507.19
2022-08-20T07:49:22.581Z,100502.78
2022-08-20T07:52:24.138Z,100505.81
2022-08-20T07:55:26.241Z,100506.59
2022-08-20T07:58:33.186Z,100506.97
2022-08-20T08:01:35.242Z,100510.25
2022-08-20T08:04:37.146Z,100518.13
2022-08-20T08:07:39.429Z,100517.94
2022-08-20T08:10:47.532Z,100530.56
2022-08-20T08:14:05.319Z,100526.13
2022-08-20T08:17:08.023Z,100528.72
2022-08-20T08:20:12.295Z,100529.91
2022-08-20T08:23:24.676Z,100526.22
2022-08-20T08:26:33.294Z,100536.19
2022-08-20T08:29:36.201Z,100537.13
2022-08-20T08:32:58.458Z,100545.91
2022-08-20T08:36:12.915Z,100539.56
2022-08-20T08:39:14.572Z,100545.91
2022-08-20T08:42:27.069Z,100548.63
2022-08-20T08:45:38.074Z,100558.88
2022-08-20T08:48:47.158Z,100564.34
2022-08-20T08:51:51.526Z,100566.56
2022-08-20T08:54:56.900Z,100568.66
2022-08-20T08:58:16.529Z,100568.00
2022-08-20T09:01:53.729Z,100564.59
2022-08-20T09:04:44.681Z,100572.47
2022-08-20T09:07:51.209Z,100572.94
2022-08-20T09:10:55.581Z,100574.00
2022-08-20T09:13:58.596Z,100582.13
2022-08-20T09:17:00.210Z,100588.00
2022-08-20T09:20:02.141Z,100593.66
2022-08-20T09:23:06.780Z,100583.50
2022-08-20T09:26:09.059Z,100582.59
2022-08-20T09:29:10.927Z,100581.50
2022-08-20T09:32:21.048Z,100573.88
2022-08-20T09:35:23.031Z,100570.09
2022-08-20T09:38:24.681Z,100573.38
2022-08-20T09:41:26.344Z,100563.66
2022-08-20T09:44:27.964Z,100568.19
2022-08-20T09:47:29.631Z,100563.38
2022-08-20T09:50:33.863Z,100562.19
2022-08-20T09:53:35.811Z,100560.44
2022-08-20T09:56:37.472Z,100553.66
2022-08-20T09:59:39.467Z,100565.06
2022-08-20T10:02:41.771Z,100566.75
2022-08-20T10:05:43.396Z,100566.09
2022-08-20T10:08:45.867Z,100564.59
2022-08-20T10:11:47.547Z,100562.31
2022-08-20T10:14:49.206Z,100554.38
2022-08-20T10:17:51.021Z,100559.34
2022-08-20T10:20:52.778Z,100563.66
2022-08-20T10:23:54.420Z,100569.22
2022-08-20T10:26:58.701Z,100562.03
2022-08-20T10:30:00.310Z,100566.31
2022-08-20T10:33:02.156Z,100575.88
2022-08-20T10:36:21.959Z,100572.31
2022-08-20T10:39:23.655Z,100585.44
2022-08-20T10:42:25.314Z,100585.38
2022-08-20T10:45:26.941Z,100593.19
2022-08-20T10:48:29.562Z,100611.03
2022-08-20T10:51:32.660Z,100615.19
2022-08-20T10:54:34.602Z,100615.44
2022-08-20T10:57:39.395Z,100604.66
2022-08-20T11:00:41.720Z,100617.16
2022-08-20T11:06:45.015Z,100622.44
2022-08-20T11:09:48.803Z,100615.47
2022-08-20T11:12:50.457Z,100623.97
2022-08-20T11:15:52.093Z,100617.66
2022-08-20T11:18:53.713Z,100622.25
2022-08-20T11:21:56.266Z,100606.91
2022-08-20T11:24:57.874Z,100613.69
2022-08-20T11:27:59.587Z,100616.75
2022-08-20T11:31:01.876Z,100618.59
2022-08-20T11:34:03.543Z,100611.53
2022-08-20T11:37:05.187Z,100609.06
2022-08-20T11:40:12.331Z,100606.69
2022-08-20T11:43:16.407Z,100606.47
2022-08-20T11:46:18.810Z,100608.44
2022-08-20T11:49:20.442Z,100607.91
2022-08-20T11:52:22.060Z,100599.19
2022-08-20T11:55:28.560Z,100610.50
2022-08-20T11:58:33.787Z,100601.91
2022-08-20T12:01:35.469Z,100603.84
2022-08-20T12:04:37.045Z,100598.84
2022-08-20T12:07:39.093Z,100597.06
2022-08-20T12:10:40.740Z,100596.69
2022-08-20T12:13:47.290Z,100602.00
2022-08-20T12:16:49.315Z,100605.75
2022-08-20T12:19:53.138Z,100605.75
2022-08-20T12:22:54.744Z,100617.34
2022-08-20T12:25:56.477Z,100620.91
2022-08-20T12:29:00.947Z,100618.19
2022-08-20T12:32:03.381Z,100617.50
2022-08-20T12:35:07.307Z,100610.69
2022-08-20T12:38:09.007Z,100608.78
2022-08-20T12:41:11.862Z,100605.56
2022-08-20T12:44:13.548Z,100609.78
2022-08-20T12:47:27.419Z,100600.06
2022-08-20T12:50:31.596Z,100590.38
2022-08-20T12:53:33.509Z,100578.31
2022-08-20T12:56:36.191Z,100585.25
2022-08-20T12:59:37.781Z,100579.06
2022-08-20T13:02:41.225Z,100575.75
2022-08-20T13:05:43.074Z,100572.94
2022-08-20T13:08:44.660Z,100576.97
2022-08-20T13:11:46.389Z,100579.03
2022-08-20T13:14:48.001Z,100569.34
2022-08-20T13:17:57.470Z,100563.78
2022-08-20T13:20:59.057Z,100571.41
2022-08-20T13:24:00.716Z,100575.94
2022-08-20T13:27:13.085Z,100565.19
2022-08-20T13:30:20.126Z,100569.69
2022-08-20T13:33:21.931Z,100573.47
2022-08-20T13:36:23.611Z,100565.63
2022-08-20T13:39:25.303Z,100571.38
2022-08-20T13:42:28.071Z,100578.09
2022-08-20T13:45:29.646Z,100580.75
2022-08-20T13:48:31.255Z,100578.22
2022-08-20T13:51:32.835Z,100578.56
2022-08-20T13:54:34.644Z,100589.31
2022-08-20T13:57:36.812Z,100582.47
2022-08-20T14:00:38.479Z,100579.63
2022-08-20T14:03:42.783Z,100581.31
2022-08-20T14:06:44.467Z,100575.56
2022-08-20T14:09:49.773Z,100575.28
2022-08-20T14:12:51.748Z,100580.28
2022-08-20T14:15:54.166Z,100577.56
2022-08-20T14:18:56.443Z,100579.22
2022-08-20T14:21:58.232Z,100573.59
2022-08-20T14:25:03.482Z,100574.88
2022-08-20T14:28:13.868Z,100574.88
2022-08-20T14:31:15.516Z,100581.41
2022-08-20T14:34:17.435Z,100585.19
2022-08-20T14:37:22.715Z,100575.00
2022-08-20T14:40:26.841Z,100580.00
2022-08-20T14:43:28.520Z,100576.59
2022-08-20T14:46:30.175Z,100571.97
2022-08-20T14:49:33.081Z,100565.28
2022-08-20T14:52:36.651Z,100570.75
2022-08-20T14:55:38.741Z,100568.28
2022-08-20T14:58:40.313Z,100568.63
2022-08-20T15:01:42.122Z,100569.41
2022-08-20T15:04:45.414Z,100564.88
2022-08-20T15:07:54.374Z,100568.16
2022-08-20T15:10:56.105Z,100557.78
2022-08-20T15:13:57.788Z,100562.00
2022-08-20T15:16:59.402Z,100569.97
2022-08-20T15:20:11.568Z,100569.47
2022-08-20T15:23:23.050Z,100567.41
2022-08-20T15:26:24.745Z,100569.56
2022-08-20T15:29:26.343Z,100571.63
2022-08-20T15:32:28.031Z,100568.72
2022-08-20T15:35:29.763Z,100569.13
2022-08-20T15:38:32.985Z,100561.88
2022-08-20T15:41:34.739Z,100558.66
2022-08-20T15:44:37.749Z,100560.25
2022-08-20T15:48:06.333Z,100566.75
2022-08-20T15:51:07.901Z,100576.38
2022-08-20T15:54:26.205Z,100574.97
2022-08-20T15:57:55.403Z,100570.72
2022-08-20T16:01:24.226Z,100576.56
2022-08-20T16:04:41.771Z,100573.06
2022-08-20T16:08:01.374Z,100566.69
2022-08-20T16:11:21.707Z,100569.03
2022-08-20T16:14:31.054Z,100567.34
2022-08-20T16:18:24.284Z,100575.28
2022-08-20T16:21:34.634Z,100577.72
2022-08-20T16:24:36.320Z,100581.41
2022-08-20T16:27:52.942Z,100582.97
2022-08-20T16:31:06.375Z,100581.41
2022-08-20T16:34:33.164Z,100584.03
2022-08-20T16:38:23.395Z,100583.59
2022-08-20T16:41:38.652Z,100583.97
2022-08-20T16:44:44.837Z,100588.47
2022-08-20T16:47:48.119Z,100589.72
2022-08-20T16:50:58.937Z,100584.63
2022-08-20T16:54:00.654Z,100588.59
2022-08-20T16:57:05.522Z,100583.47
2022-08-20T17:00:16.322Z,100589.31
2022-08-20T17:03:33.583Z,100597.06
2022-08-20T17:06:49.390Z,100588.19
2022-08-20T17:09:52.193Z,100588.06
2022-08-20T17:13:14.801Z,100591.84
2022-08-20T17:16:18.459Z,100586.94
2022-08-20T17:19:29.470Z,100600.44
2022-08-20T17:22:41.522Z,100598.22
2022-08-20T17:25:44.522Z,100601.31
2022-08-20T17:28:53.870Z,100602.16
2022-08-20T17:32:21.840Z,100618.72
2022-08-20T17:35:30.119Z,100615.34
2022-08-20T17:38:39.892Z,100608.19
2022-08-20T17:41:48.058Z,100607.41
2022-08-20T17:45:05.845Z,100616.81
2022-08-20T17:48:15.374Z,100615.84
2022-08-20T17:51:23.568Z,100619.81
2022-08-20T17:54:34.389Z,100619.63
2022-08-20T17:57:40.124Z,100623.75
2022-08-20T18:00:43.546Z,100619.88
2022-08-20T18:03:45.205Z,100634.38
2022-08-20T18:06:54.884Z,100632.19
2022-08-20T18:10:10.490Z,100636.13
2022-08-20T18:13:18.407Z,100637.41
2022-08-20T18:16:31.251Z,100640.31
2022-08-20T18:19:48.244Z,100645.28
2022-08-20T18:22:57.364Z,100648.91
2022-08-20T18:26:21.323Z,100652.19
2022-08-20T18:29:28.254Z,100664.66
2022-08-20T18:32:36.801Z,100656.50
2022-08-20T18:35:45.790Z,100662.50
2022-08-20T18:38:57.053Z,100667.78
2022-08-20T18:41:58.711Z,100661.03
2022-08-20T18:45:00.818Z,100660.06
2022-08-20T18:48:03.894Z,100660.56
2022-08-20T18:51:19.059Z,100656.13
2022-08-20T18:54:30.687Z,100672.16
2022-08-20T18:57:41.737Z,100667.59
2022-08-20T19:00:48.822Z,100672.56
2022-08-20T19:04:04.845Z,100668.66
2022-08-20T19:07:17.502Z,100677.69
2022-08-20T19:10:46.736Z,100676.19
2022-08-20T19:13:53.703Z,100683.50
2022-08-20T19:17:10.587Z,100684.03
2022-08-20T19:20:25.455Z,100683.69
2022-08-20T19:23:29.835Z,100678.91
2022-08-20T19:26:39.393Z,100686.56
2022-08-20T19:29:48.685Z,100680.78
2022-08-20T19:32:52.917Z,100673.13
2022-08-20T19:35:54.615Z,100685.91
2022-08-20T19:39:00.804Z,100681.44
2022-08-20T19:42:14.481Z,100678.06
2022-08-20T19:45:26.003Z,100678.38
2022-08-20T19:48:41.448Z,100686.06
2022-08-20T19:52:08.987Z,100692.00
2022-08-20T19:55:29.807Z,100687.59
2022-08-20T19:58:33.245Z,100689.97
2022-08-20T20:01:36.289Z,100685.03
2022-08-20T20:04:41.133Z,100692.34
2022-08-20T20:07:58.526Z,100687.25
2022-08-20T20:11:01.053Z,100693.53
2022-08-20T20:14:12.327Z,100702.03
2022-08-20T20:17:23.111Z,100709.00
2022-08-20T20:20:57.142Z,100701.84
2022-08-20T20:24:01.088Z,100698.94
2022-08-20T20:27:02.818Z,100706.75
2022-08-20T20:30:12.513Z,100693.78
2022-08-20T20:33:35.560Z,100699.88
2022-08-20T20:36:43.928Z,100707.84
2022-08-20T20:39:45.873Z,100701.69
2022-08-20T20:43:07.831Z,100707.63
2022-08-20T20:46:25.074Z,100705.19
2022-08-20T20:49:29.387Z,100707.00
2022-08-20T20:52:37.604Z,100706.97
2022-08-20T20:55:39.863Z,100707.09
2022-08-20T20:58:41.497Z,100715.03
2022-08-20T21:01:55.384Z,100718.41
2022-08-20T21:04:58.368Z,100709.88
2022-08-20T21:08:02.437Z,100720.03
2022-08-20T21:11:04.140Z,100716.53
2022-08-20T21:14:05.844Z,100719.22
2022-08-20T21:17:11.704Z,100719.28
2022-08-20T21:20:13.574Z,100726.38
2022-08-20T21:23:15.232Z,100730.03
2022-08-20T21:26:16.832Z,100724.75
2022-08-20T21:29:30.456Z,100735.47
2022-08-20T21:32:33.870Z,100737.78
2022-08-20T21:35:35.557Z,100739.28
2022-08-20T21:38:37.215Z,100746.66
2022-08-20T21:41:42.653Z,100740.25
2022-08-20T21:44:49.497Z,100742.44
2022-08-20T21:47:51.489Z,100738.88
2022-08-20T21:50:53.087Z,100736.63
2022-08-20T21:53:55.159Z,100742.06
2022-08-20T21:57:18.371Z,100739.66
2022-08-20T22:00:45.485Z,100743.81
2022-08-20T22:03:49.507Z,100736.44
2022-08-20T22:06:52.158Z,100740.31
2022-08-20T22:09:53.843Z,100740.94
2022-08-20T22:12:55.768Z,100744.06
2022-08-20T22:15:59.431Z,100735.38
2022-08-20T22:19:01.202Z,100737.13
2022-08-20T22:22:03.058Z,100734.72
2022-08-20T22:25:05.183Z,100737.88
2022-08-20T22:28:11.945Z,100739.50
2022-08-20T22:31:15.802Z,100730.66
2022-08-20T22:34:19.743Z,100725.53
2022-08-20T22:37:21.837Z,100727.84
2022-08-20T22:40:24.247Z,100727.44
2022-08-20T22:43:25.846Z,100735.16
2022-08-20T22:46:32.258Z,100733.03
2022-08-20T22:49:35.050Z,100731.78
2022-08-20T22:52:39.222Z,100729.81
2022-08-20T22:55:41.335Z,100738.53
2022-08-20T22:58:43.386Z,100739.69
2022-08-20T23:01:48.134Z,100730.97
2022-08-20T23:04:50.111Z,100731.28
2022-08-20T23:07:56.662Z,100731.56
2022-08-20T23:10:58.441Z,100729.44
2022-08-20T23:14:00.132Z,100721.91
2022-08-20T23:17:10.122Z,100722.47
2022-08-20T23:20:17.151Z,100725.44
2022-08-20T23:23:19.024Z,100720.63
2022-08-20T23:26:22.658Z,100716.63
2022-08-20T23:29:27.146Z,100714.34
2022-08-20T23:32:28.866Z,100716.34
2022-08-20T23:35:33.036Z,100715.63
2022-08-20T23:38:35.609Z,100709.66
2022-08-20T23:41:37.243Z,100703.13
2022-08-20T23:44:49.616Z,100704.38
2022-08-20T23:47:52.087Z,100703.84
2022-08-20T23:50:53.700Z,100705.97
2022-08-20T23:53:55.707Z,100693.84
2022-08-20T23:56:58.904Z,100698.56
